Davao, Philippines
Current Conditions -  °F | °C
As of 1:00 PM on Sunday 23 Nov 2014 (Local Time) from RPMD Reporting Station
Few Clouds Few Clouds  
Wind Chill: 91°   Ceiling: Unl
Heat Index: 105°   Visibility: 6mi
Dew Point: 77°   Wind: 7mph
Humidity: 63%   Direction: 30°NNE
Pressure: 29.77"   Gusts: NA
Location:  7.11°N, 125.63°E
Report Text: RPMD 230500Z 03006KT 9999 FEW015CB 33/25 Q1008 RMK A2977 CB NNW N AND E
Loading
Personal Weather Stations






























Interactive Weather Map New forecast layout! Learn more

10-Day Weather Forecast

Advertisements
Track Severe Weather on mobile